Time;durP1;ratioP1;P1;durP2;ratioP2;P2;SDS_P1;SDS_P2;PMS_P1;PMS_P2;Temp;Humidity;BMP_temperature;BMP_pressure;BME280_temperature;BME280_humidity;BME280_pressure;Samples;Min_cycle;Max_cycle;Signal;HPM_P1;HPM_P2
2021/10/26 00:00:12;;;;;;;13.73;12.32;;;10.70;99.90;;;;;;5097594;28;20672;-67
2021/10/26 00:02:39;;;;;;;15.05;13.55;;;10.80;99.90;;;;;;5093815;28;20979;-66
2021/10/26 00:05:07;;;;;;;13.60;12.27;;;10.70;99.90;;;;;;5092317;28;20248;-66
2021/10/26 00:07:34;;;;;;;11.40;10.40;;;10.70;99.90;;;;;;5092269;28;20242;-67
2021/10/26 00:10:01;;;;;;;15.50;12.80;;;10.70;99.90;;;;;;5092393;28;20234;-66
2021/10/26 00:12:28;;;;;;;18.08;12.93;;;10.70;99.90;;;;;;5091941;28;20230;-66
2021/10/26 00:14:58;;;;;;;13.68;11.48;;;10.70;99.90;;;;;;5092467;28;20223;-66
2021/10/26 00:17:25;;;;;;;24.17;19.38;;;10.70;99.90;;;;;;5084613;28;20228;-66
2021/10/26 00:19:52;;;;;;;16.60;15.00;;;10.70;99.90;;;;;;5096102;28;20242;-66
2021/10/26 00:22:19;;;;;;;15.45;13.85;;;10.70;99.90;;;;;;5096274;28;20579;-66
2021/10/26 00:24:46;;;;;;;15.13;12.25;;;10.70;99.90;;;;;;5095659;28;20230;-66
2021/10/26 00:27:13;;;;;;;12.40;11.20;;;10.70;99.90;;;;;;5096387;28;20575;-66
2021/10/26 00:29:40;;;;;;;13.07;11.77;;;10.70;99.90;;;;;;5095111;28;20230;-66
2021/10/26 00:32:08;;;;;;;15.32;12.00;;;10.70;99.90;;;;;;5094036;28;20218;-65
2021/10/26 00:34:35;;;;;;;20.98;14.95;;;10.80;99.90;;;;;;5094200;28;20614;-65
2021/10/26 00:37:02;;;;;;;22.05;16.50;;;10.80;99.90;;;;;;5096167;28;20685;-66
2021/10/26 00:39:29;;;;;;;15.27;13.07;;;10.80;99.90;;;;;;5095688;28;20223;-66
2021/10/26 00:41:57;;;;;;;12.82;11.40;;;10.80;99.90;;;;;;5096061;28;20227;-66
2021/10/26 00:44:28;;;;;;;14.15;11.88;;;10.90;99.90;;;;;;5098125;28;20243;-66
2021/10/26 00:46:56;;;;;;;14.70;12.10;;;10.90;99.90;;;;;;5096099;28;20315;-66
2021/10/26 00:49:24;;;;;;;16.33;13.65;;;10.90;99.90;;;;;;5095380;28;20242;-65
2021/10/26 00:51:52;;;;;;;16.42;12.65;;;10.90;99.90;;;;;;5092228;28;20577;-65
2021/10/26 00:54:19;;;;;;;18.40;15.85;;;10.90;99.90;;;;;;5095400;28;20261;-66
2021/10/26 00:56:47;;;;;;;15.77;13.30;;;11.00;99.90;;;;;;5096043;28;20223;-66
2021/10/26 00:59:14;;;;;;;11.88;10.68;;;11.00;99.90;;;;;;5095621;28;20231;-65
2021/10/26 01:01:41;;;;;;;12.55;11.35;;;11.00;99.90;;;;;;5095385;28;20227;-65
2021/10/26 01:04:08;;;;;;;12.77;11.50;;;11.00;99.90;;;;;;5095656;28;20306;-66
2021/10/26 01:06:39;;;;;;;13.65;12.23;;;11.00;99.90;;;;;;5095388;28;20265;-65
2021/10/26 01:09:07;;;;;;;13.82;12.43;;;11.00;99.90;;;;;;5084075;28;20231;-65
2021/10/26 01:11:35;;;;;;;15.07;12.68;;;11.00;99.90;;;;;;5095261;28;20234;-65
2021/10/26 01:14:03;;;;;;;16.80;14.00;;;11.00;99.90;;;;;;5094415;28;20227;-65
2021/10/26 01:16:30;;;;;;;15.85;12.20;;;11.00;99.90;;;;;;5092745;28;20222;-65
2021/10/26 01:18:58;;;;;;;11.25;10.25;;;11.00;99.90;;;;;;5094746;28;20696;-66
2021/10/26 01:21:26;;;;;;;14.02;12.18;;;11.00;99.90;;;;;;5093988;28;20227;-65
2021/10/26 01:23:53;;;;;;;12.00;10.82;;;11.00;99.90;;;;;;5094554;28;20231;-65
2021/10/26 01:26:20;;;;;;;14.57;12.73;;;11.00;99.90;;;;;;5094136;28;20238;-66
2021/10/26 01:28:47;;;;;;;14.57;12.38;;;11.00;99.90;;;;;;5094171;28;20228;-65
2021/10/26 01:31:14;;;;;;;16.80;15.00;;;11.00;99.90;;;;;;5087100;28;20215;-66
2021/10/26 01:33:41;;;;;;;14.68;12.95;;;11.10;99.90;;;;;;5095072;28;20239;-66
2021/10/26 01:36:09;;;;;;;21.35;15.38;;;11.10;99.90;;;;;;5095222;28;20219;-65
2021/10/26 01:38:37;;;;;;;18.08;12.98;;;11.00;99.90;;;;;;5094709;28;20230;-65
2021/10/26 01:41:04;;;;;;;26.13;21.25;;;11.00;99.90;;;;;;5095096;28;20280;-65
2021/10/26 01:43:32;;;;;;;11.93;10.73;;;11.00;99.90;;;;;;5094680;28;20756;-65
2021/10/26 01:45:59;;;;;;;22.45;18.60;;;11.00;99.90;;;;;;5081249;28;20247;-65
2021/10/26 01:48:27;;;;;;;19.15;16.55;;;11.00;99.90;;;;;;5094664;28;20254;-65
2021/10/26 01:50:54;;;;;;;15.63;14.07;;;11.00;99.90;;;;;;5081849;28;20615;-65
2021/10/26 01:53:21;;;;;;;27.83;22.70;;;11.00;99.90;;;;;;5094573;28;20284;-65
2021/10/26 01:55:50;;;;;;;23.42;16.60;;;11.00;99.90;;;;;;5094928;28;20306;-65
2021/10/26 01:58:17;;;;;;;28.65;21.02;;;11.00;99.90;;;;;;5094674;28;20234;-65
2021/10/26 02:00:44;;;;;;;19.95;14.90;;;11.00;99.90;;;;;;5094121;28;20231;-65
2021/10/26 02:03:11;;;;;;;14.10;12.90;;;11.00;99.90;;;;;;5094717;28;20250;-65
2021/10/26 02:05:38;;;;;;;11.68;10.48;;;11.00;99.90;;;;;;5094336;28;20223;-66
2021/10/26 02:08:06;;;;;;;21.23;17.65;;;11.00;99.90;;;;;;5094510;28;20219;-66
2021/10/26 02:10:33;;;;;;;14.38;11.95;;;11.00;99.90;;;;;;5094077;28;20280;-66
2021/10/26 02:13:01;;;;;;;19.45;15.95;;;11.00;99.90;;;;;;5094487;28;20215;-66
2021/10/26 02:15:28;;;;;;;14.52;11.52;;;11.00;99.90;;;;;;5094143;28;20222;-66
2021/10/26 02:17:57;;;;;;;11.30;10.10;;;11.00;99.90;;;;;;5094348;28;20231;-66
2021/10/26 02:20:24;;;;;;;18.88;14.43;;;11.00;99.90;;;;;;5094004;28;20716;-66
2021/10/26 02:22:51;;;;;;;11.85;10.75;;;11.00;99.90;;;;;;5094149;28;20215;-67
2021/10/26 02:25:18;;;;;;;11.50;10.40;;;11.00;99.90;;;;;;5094119;28;20215;-66
2021/10/26 02:27:45;;;;;;;17.45;14.18;;;10.90;99.90;;;;;;5093964;28;20337;-67
2021/10/26 02:30:14;;;;;;;25.58;17.95;;;10.90;99.90;;;;;;5093913;28;20550;-66
2021/10/26 02:32:41;;;;;;;16.30;13.85;;;10.80;99.90;;;;;;5093903;28;20223;-66
2021/10/26 02:35:08;;;;;;;13.32;11.98;;;10.80;99.90;;;;;;5094000;28;20696;-66
2021/10/26 02:37:35;;;;;;;13.95;12.45;;;10.80;99.90;;;;;;5093736;28;20230;-66
2021/10/26 02:40:02;;;;;;;13.52;10.00;;;10.80;99.90;;;;;;5092943;28;20235;-66
2021/10/26 02:42:29;;;;;;;19.38;17.20;;;10.80;99.90;;;;;;5093508;28;20222;-66
2021/10/26 02:44:56;;;;;;;17.42;13.43;;;10.80;99.90;;;;;;5094008;28;20561;-66
2021/10/26 02:47:25;;;;;;;16.70;13.23;;;10.80;99.90;;;;;;5093665;28;20223;-66
2021/10/26 02:49:52;;;;;;;14.57;11.00;;;10.80;99.90;;;;;;5093372;28;20292;-66
2021/10/26 02:52:19;;;;;;;13.13;11.73;;;10.80;99.90;;;;;;5094070;28;20294;-66
2021/10/26 02:54:46;;;;;;;17.33;13.27;;;10.80;99.90;;;;;;5093120;28;20681;-66
2021/10/26 02:57:13;;;;;;;21.85;18.50;;;10.70;99.90;;;;;;5093679;28;20223;-66
2021/10/26 02:59:40;;;;;;;13.77;12.40;;;10.70;99.90;;;;;;5092847;28;20268;-66
2021/10/26 03:02:07;;;;;;;11.98;10.20;;;10.80;99.90;;;;;;5093577;28;20227;-66
2021/10/26 03:04:35;;;;;;;11.40;10.32;;;10.80;99.90;;;;;;5093035;28;20708;-66
2021/10/26 03:07:02;;;;;;;10.82;9.82;;;10.80;99.90;;;;;;5093614;28;20235;-67
2021/10/26 03:09:30;;;;;;;19.52;14.48;;;10.80;99.90;;;;;;5092932;28;20246;-66
2021/10/26 03:11:56;;;;;;;14.25;12.52;;;10.80;99.90;;;;;;5093397;28;20230;-66
2021/10/26 03:14:23;;;;;;;13.95;12.43;;;10.80;99.90;;;;;;5093453;28;20215;-66
2021/10/26 03:16:50;;;;;;;15.60;14.10;;;10.80;99.90;;;;;;5093390;28;20235;-66
2021/10/26 03:19:17;;;;;;;14.70;13.20;;;10.80;99.90;;;;;;5080159;28;20294;-66
2021/10/26 03:21:46;;;;;;;12.52;11.32;;;10.80;99.90;;;;;;5092791;28;20235;-66
2021/10/26 03:24:13;;;;;;;16.60;14.90;;;10.80;99.90;;;;;;5093218;28;20545;-66
2021/10/26 03:26:40;;;;;;;16.85;14.35;;;10.80;99.90;;;;;;5092767;28;20224;-66
2021/10/26 03:29:06;;;;;;;13.85;12.38;;;10.80;99.90;;;;;;5093257;28;20231;-66
2021/10/26 03:31:33;;;;;;;10.35;9.45;;;10.80;99.90;;;;;;5092357;28;20227;-66
2021/10/26 03:34:00;;;;;;;16.20;14.57;;;10.80;99.90;;;;;;5093253;28;20219;-66
2021/10/26 03:36:27;;;;;;;11.23;10.15;;;10.80;99.90;;;;;;5093044;28;20212;-66
2021/10/26 03:38:56;;;;;;;12.98;10.18;;;10.70;99.90;;;;;;5092516;28;20215;-66
2021/10/26 03:41:23;;;;;;;15.00;11.07;;;10.70;99.90;;;;;;5092848;28;20255;-65
2021/10/26 03:43:49;;;;;;;12.05;10.93;;;10.70;99.90;;;;;;5092304;28;20219;-65
2021/10/26 03:46:16;;;;;;;13.95;12.23;;;10.70;99.90;;;;;;5092907;28;20234;-65
2021/10/26 03:48:43;;;;;;;10.52;9.52;;;10.70;99.90;;;;;;5092577;28;20572;-65
2021/10/26 03:51:11;;;;;;;12.02;10.90;;;10.60;99.90;;;;;;5092476;28;20219;-65
2021/10/26 03:53:38;;;;;;;13.70;11.43;;;10.60;99.90;;;;;;5092364;28;20220;-66
2021/10/26 03:56:06;;;;;;;15.10;12.77;;;10.60;99.90;;;;;;5092927;28;20219;-65
2021/10/26 03:58:35;;;;;;;12.00;10.82;;;10.70;99.90;;;;;;5078586;28;20227;-65
2021/10/26 04:01:03;;;;;;;13.48;11.15;;;10.60;99.90;;;;;;5092724;28;20280;-66
2021/10/26 04:03:30;;;;;;;11.55;10.35;;;10.60;99.90;;;;;;5092759;28;20612;-65
2021/10/26 04:06:02;;;;;;;13.48;11.10;;;10.50;99.90;;;;;;5092157;28;20226;-65
2021/10/26 04:08:34;;;;;;;10.90;9.68;;;10.60;99.90;;;;;;5092434;28;20388;-65
2021/10/26 04:11:03;;;;;;;13.10;11.30;;;10.60;99.90;;;;;;5092457;28;20235;-66
2021/10/26 04:13:32;;;;;;;12.80;11.50;;;10.60;99.90;;;;;;5092518;28;20573;-66
2021/10/26 04:15:59;;;;;;;17.17;14.77;;;10.70;99.90;;;;;;5092147;28;20552;-67
2021/10/26 04:18:25;;;;;;;21.08;18.42;;;10.70;99.90;;;;;;5092149;28;20230;-66
2021/10/26 04:20:53;;;;;;;15.30;13.73;;;10.70;99.90;;;;;;5091932;28;20909;-66
2021/10/26 04:23:21;;;;;;;14.98;12.80;;;10.70;99.90;;;;;;5092550;28;20223;-67
2021/10/26 04:25:47;;;;;;;15.10;12.27;;;10.80;99.90;;;;;;5092083;28;20227;-66
2021/10/26 04:28:14;;;;;;;13.43;11.48;;;10.80;99.90;;;;;;5092371;28;20242;-67
2021/10/26 04:30:43;;;;;;;16.80;13.70;;;10.80;99.90;;;;;;5084343;28;20236;-66
2021/10/26 04:33:10;;;;;;;12.73;11.35;;;10.90;99.90;;;;;;5092696;28;20268;-66
2021/10/26 04:35:38;;;;;;;13.18;10.88;;;10.90;99.90;;;;;;5091961;28;20310;-65
2021/10/26 04:38:05;;;;;;;14.27;12.10;;;10.90;99.90;;;;;;5092376;28;20607;-65
2021/10/26 04:40:33;;;;;;;11.57;10.45;;;10.90;99.90;;;;;;5092324;28;20231;-66
2021/10/26 04:43:00;;;;;;;14.75;10.90;;;10.90;99.90;;;;;;5091636;28;20246;-65
2021/10/26 04:45:28;;;;;;;12.43;10.65;;;10.90;99.90;;;;;;5092131;28;20254;-66
2021/10/26 04:47:56;;;;;;;13.63;12.32;;;10.90;99.90;;;;;;5091835;28;20250;-66
2021/10/26 04:50:23;;;;;;;14.50;12.70;;;11.00;99.90;;;;;;5092179;28;20219;-66
2021/10/26 04:52:51;;;;;;;19.02;15.48;;;11.00;99.90;;;;;;5091711;28;20219;-66
2021/10/26 04:55:18;;;;;;;16.98;15.25;;;11.10;99.90;;;;;;5092100;28;20224;-66
2021/10/26 04:57:45;;;;;;;13.55;12.23;;;11.10;99.90;;;;;;5091744;28;20235;-66
2021/10/26 05:00:13;;;;;;;15.23;13.43;;;11.10;99.90;;;;;;5091725;28;20231;-65
2021/10/26 05:02:40;;;;;;;11.75;10.68;;;11.10;99.90;;;;;;5092386;28;20254;-66
2021/10/26 05:05:10;;;;;;;12.05;10.07;;;11.10;99.90;;;;;;5095713;28;20239;-67
2021/10/26 05:07:37;;;;;;;11.07;10.02;;;11.20;99.90;;;;;;5095691;28;20565;-66
2021/10/26 05:10:05;;;;;;;11.95;10.75;;;11.20;99.90;;;;;;5095232;28;20657;-66
2021/10/26 05:12:32;;;;;;;13.35;11.50;;;11.20;99.90;;;;;;5095858;28;20319;-66
2021/10/26 05:14:59;;;;;;;13.27;11.98;;;11.30;99.90;;;;;;5095170;28;20227;-66
2021/10/26 05:17:27;;;;;;;13.98;12.30;;;11.30;99.90;;;;;;5095207;28;20662;-66
2021/10/26 05:19:54;;;;;;;15.35;10.85;;;11.40;99.90;;;;;;5094946;28;20693;-66
2021/10/26 05:22:26;;;;;;;11.10;9.95;;;11.40;99.90;;;;;;5095647;28;20220;-67
2021/10/26 05:24:53;;;;;;;13.05;10.30;;;11.40;99.90;;;;;;5085636;28;20300;-66
2021/10/26 05:27:21;;;;;;;9.70;8.75;;;11.40;99.90;;;;;;5095334;28;20235;-65
2021/10/26 05:29:49;;;;;;;13.05;10.52;;;11.40;99.90;;;;;;5093158;28;20227;-66
2021/10/26 05:32:16;;;;;;;11.93;10.73;;;11.40;99.90;;;;;;5089953;28;20239;-66
2021/10/26 05:34:43;;;;;;;9.75;8.75;;;11.40;99.90;;;;;;5094912;28;20219;-66
2021/10/26 05:37:11;;;;;;;10.23;9.23;;;11.40;99.90;;;;;;5095342;28;20226;-66
2021/10/26 05:39:41;;;;;;;10.30;9.35;;;11.40;99.90;;;;;;5095109;28;20247;-65
2021/10/26 05:42:08;;;;;;;14.00;12.50;;;11.50;99.90;;;;;;5094852;28;20849;-65
2021/10/26 05:44:35;;;;;;;14.73;13.23;;;11.50;99.90;;;;;;5095322;28;20269;-65
2021/10/26 05:47:02;;;;;;;13.02;11.73;;;11.50;99.90;;;;;;5094518;28;20234;-65
2021/10/26 05:49:30;;;;;;;12.63;10.38;;;11.50;99.90;;;;;;5095056;28;20242;-65
2021/10/26 05:51:57;;;;;;;11.82;10.57;;;11.50;99.90;;;;;;5094546;28;20268;-66
2021/10/26 05:54:24;;;;;;;11.57;9.48;;;11.60;99.90;;;;;;5094938;28;20219;-66
2021/10/26 05:56:52;;;;;;;10.38;9.40;;;11.60;99.90;;;;;;5094287;28;20215;-66
2021/10/26 05:59:19;;;;;;;10.77;9.70;;;11.60;99.90;;;;;;5094753;28;20223;-65
2021/10/26 06:01:46;;;;;;;11.10;9.95;;;11.60;99.90;;;;;;5094557;28;20239;-65
2021/10/26 06:04:13;;;;;;;10.23;9.13;;;11.60;99.90;;;;;;5094658;28;20219;-65
2021/10/26 06:06:40;;;;;;;10.48;9.38;;;11.60;99.90;;;;;;5094710;28;20219;-67
2021/10/26 06:09:07;;;;;;;11.30;10.10;;;11.60;99.90;;;;;;5080128;28;20224;-67
2021/10/26 06:11:34;;;;;;;10.57;8.63;;;11.60;99.90;;;;;;5094642;28;20219;-67
2021/10/26 06:14:04;;;;;;;10.32;9.32;;;11.70;99.90;;;;;;5093881;28;20306;-66
2021/10/26 06:16:32;;;;;;;12.52;11.23;;;11.70;99.90;;;;;;5094620;28;20241;-65
2021/10/26 06:19:00;;;;;;;13.63;10.88;;;11.70;99.90;;;;;;5093657;28;20227;-65
2021/10/26 06:21:28;;;;;;;17.33;15.23;;;11.70;99.90;;;;;;5094618;28;20223;-65
2021/10/26 06:23:55;;;;;;;24.60;19.60;;;11.70;99.90;;;;;;5093765;28;20219;-65
2021/10/26 06:26:23;;;;;;;19.00;15.10;;;11.70;99.90;;;;;;5094466;28;20223;-65
2021/10/26 06:28:51;;;;;;;17.25;13.40;;;11.70;99.90;;;;;;5093617;28;20239;-65
2021/10/26 06:31:19;;;;;;;15.48;13.88;;;11.80;99.90;;;;;;5094143;28;20226;-65
2021/10/26 06:33:47;;;;;;;15.70;12.75;;;11.80;99.90;;;;;;5094118;28;20237;-65
2021/10/26 06:36:14;;;;;;;15.20;13.65;;;11.80;99.90;;;;;;5093956;28;20223;-66
2021/10/26 06:38:41;;;;;;;14.30;12.27;;;11.90;99.90;;;;;;5093806;28;20215;-66
2021/10/26 06:41:08;;;;;;;17.40;12.68;;;11.90;99.90;;;;;;5093404;28;20592;-66
2021/10/26 06:43:37;;;;;;;11.93;10.40;;;11.90;99.90;;;;;;5093847;28;20254;-66
2021/10/26 06:46:05;;;;;;;12.27;10.82;;;12.00;99.90;;;;;;5093441;28;20223;-66
2021/10/26 06:48:33;;;;;;;13.10;11.10;;;12.00;99.90;;;;;;5093673;28;20219;-66
2021/10/26 06:51:00;;;;;;;12.68;10.50;;;12.10;99.90;;;;;;5093508;28;20227;-66
2021/10/26 06:53:28;;;;;;;15.38;11.43;;;12.10;99.90;;;;;;5093633;28;20223;-66
2021/10/26 06:55:58;;;;;;;12.90;11.35;;;12.10;99.90;;;;;;5093339;28;20243;-66
2021/10/26 06:58:25;;;;;;;15.80;11.30;;;12.10;99.90;;;;;;5080998;28;20225;-66
2021/10/26 07:00:52;;;;;;;12.95;10.10;;;12.20;99.90;;;;;;5092989;28;20799;-66
2021/10/26 07:03:21;;;;;;;14.05;10.20;;;12.20;99.90;;;;;;5093423;28;20223;-66
2021/10/26 07:05:49;;;;;;;13.45;12.05;;;12.20;99.90;;;;;;5093616;28;20288;-66
2021/10/26 07:08:16;;;;;;;14.07;12.57;;;12.30;99.90;;;;;;5084586;28;20223;-67
2021/10/26 07:10:43;;;;;;;14.45;12.95;;;12.40;99.90;;;;;;5088465;28;20254;-65
2021/10/26 07:13:10;;;;;;;14.40;11.75;;;12.40;99.90;;;;;;5093118;28;20230;-67
2021/10/26 07:15:37;;;;;;;16.73;15.07;;;12.50;99.90;;;;;;5093007;28;20226;-65
2021/10/26 07:18:04;;;;;;;14.45;12.57;;;12.50;99.90;;;;;;5092785;28;20239;-67
2021/10/26 07:20:31;;;;;;;14.15;12.73;;;12.60;99.90;;;;;;5093054;28;20223;-65
2021/10/26 07:22:59;;;;;;;16.90;13.48;;;12.60;99.90;;;;;;5093064;28;20223;-66
2021/10/26 07:25:26;;;;;;;16.90;13.13;;;12.70;99.90;;;;;;5092692;28;20235;-65
2021/10/26 07:27:57;;;;;;;15.40;13.48;;;12.80;99.90;;;;;;5092732;28;20704;-65
2021/10/26 07:30:28;;;;;;;16.00;14.30;;;12.80;99.90;;;;;;5092837;28;20227;-65
2021/10/26 07:32:56;;;;;;;17.30;14.60;;;12.90;99.90;;;;;;5092906;28;20276;-65
2021/10/26 07:35:24;;;;;;;15.13;13.40;;;12.90;99.90;;;;;;5093100;28;20223;-66
2021/10/26 07:37:51;;;;;;;13.18;11.50;;;12.90;99.90;;;;;;5093117;28;20284;-65
2021/10/26 07:40:19;;;;;;;29.15;20.98;;;13.00;99.90;;;;;;5092513;28;20554;-66
2021/10/26 07:42:46;;;;;;;21.63;17.40;;;13.00;99.90;;;;;;5093006;28;20635;-65
2021/10/26 07:45:13;;;;;;;19.38;15.38;;;13.00;99.90;;;;;;5092517;28;20230;-65
2021/10/26 07:47:40;;;;;;;15.07;12.98;;;13.00;99.90;;;;;;5092955;28;20546;-65
2021/10/26 07:50:10;;;;;;;17.40;13.10;;;13.10;99.90;;;;;;5092307;28;20235;-66
2021/10/26 07:52:38;;;;;;;14.40;11.50;;;13.10;99.90;;;;;;5092900;28;20566;-66
2021/10/26 07:55:06;;;;;;;12.60;10.95;;;13.10;99.90;;;;;;5092343;28;20235;-66
2021/10/26 07:57:34;;;;;;;14.00;12.30;;;13.20;99.90;;;;;;5092650;28;20242;-66
2021/10/26 08:00:01;;;;;;;13.93;12.07;;;13.20;99.90;;;;;;5095842;28;20716;-66
2021/10/26 08:02:28;;;;;;;13.98;11.85;;;13.20;99.90;;;;;;5096775;28;20215;-65
2021/10/26 08:04:56;;;;;;;14.48;12.95;;;13.30;99.90;;;;;;5092109;28;20219;-65
2021/10/26 08:07:23;;;;;;;13.43;11.77;;;13.30;99.90;;;;;;5092454;28;20254;-66
2021/10/26 08:09:52;;;;;;;19.25;14.57;;;13.40;99.90;;;;;;5092573;28;20558;-65
2021/10/26 08:12:20;;;;;;;16.80;14.20;;;13.50;99.90;;;;;;5092248;28;20557;-65
2021/10/26 08:14:49;;;;;;;16.50;13.47;;;13.50;99.90;;;;;;5092622;28;20242;-65
2021/10/26 08:17:16;;;;;;;17.52;14.68;;;13.50;99.90;;;;;;5072441;28;20457;-65
2021/10/26 08:19:45;;;;;;;15.52;12.80;;;13.60;99.90;;;;;;5092426;28;20234;-65
2021/10/26 08:22:15;;;;;;;13.45;12.07;;;13.60;99.90;;;;;;5092171;28;20238;-66
2021/10/26 08:24:43;;;;;;;18.30;16.42;;;13.70;99.90;;;;;;5092828;28;20677;-65
2021/10/26 08:27:14;;;;;;;16.08;14.15;;;13.70;99.90;;;;;;5092026;28;20227;-66
2021/10/26 08:29:45;;;;;;;17.92;15.23;;;13.80;99.90;;;;;;5092551;28;20284;-65
2021/10/26 08:32:30;;;;;;;16.75;14.35;;;13.80;99.90;;;;;;5092000;28;20302;-66
2021/10/26 08:35:21;;;;;;;20.70;18.33;;;13.90;99.90;;;;;;5092509;28;20269;-65
2021/10/26 08:37:50;;;;;;;20.65;17.42;;;13.90;99.90;;;;;;5094868;28;20215;-66
2021/10/26 08:40:17;;;;;;;19.23;16.35;;;13.90;99.90;;;;;;5096471;28;20223;-65
2021/10/26 08:42:46;;;;;;;16.90;15.10;;;13.90;99.90;;;;;;5095851;28;20596;-66
2021/10/26 08:45:13;;;;;;;21.10;17.30;;;14.00;99.90;;;;;;5096312;28;20465;-66
2021/10/26 08:47:42;;;;;;;17.33;15.20;;;14.00;99.90;;;;;;5096055;28;20461;-66
2021/10/26 08:50:10;;;;;;;23.95;21.30;;;14.00;99.90;;;;;;5096169;28;20224;-66
2021/10/26 08:52:37;;;;;;;19.55;17.08;;;14.00;99.90;;;;;;5096305;28;20306;-66
2021/10/26 08:55:07;;;;;;;18.00;15.93;;;14.10;99.90;;;;;;5095812;28;20245;-65
2021/10/26 08:57:34;;;;;;;18.90;15.73;;;14.10;99.90;;;;;;5096200;28;20526;-66
2021/10/26 09:00:06;;;;;;;34.40;28.83;;;14.10;99.90;;;;;;5095355;28;20485;-66
2021/10/26 09:02:35;;;;;;;26.77;23.95;;;14.20;99.90;;;;;;5113159;28;20225;-66
2021/10/26 09:05:15;;;;;;;37.87;33.73;;;14.20;99.90;;;;;;5115996;28;20225;-65
2021/10/26 09:07:59;;;;;;;27.80;24.80;;;14.20;99.90;;;;;;5115900;28;21011;-66
2021/10/26 09:10:29;;;;;;;21.67;17.83;;;14.20;99.90;;;;;;5116172;28;20494;-66
2021/10/26 09:18:33;;;;;;;18.77;14.38;;;14.30;99.90;;;;;;5110559;28;20299;-67
2021/10/26 09:21:02;;;;;;;31.90;22.90;;;14.30;99.90;;;;;;5095377;28;20681;-67
2021/10/26 09:23:29;;;;;;;26.93;21.97;;;14.30;99.90;;;;;;5095657;28;20858;-65
2021/10/26 09:25:58;;;;;;;35.25;24.13;;;14.30;99.90;;;;;;5095251;28;20956;-66
2021/10/26 09:28:26;;;;;;;26.23;20.60;;;14.40;99.90;;;;;;5075393;28;20227;-66
2021/10/26 09:31:01;;;;;;;23.80;19.57;;;14.40;99.90;;;;;;5074908;28;20274;-66
2021/10/26 09:33:33;;;;;;;24.93;20.10;;;14.50;99.90;;;;;;5075343;28;20488;-65
2021/10/26 09:36:23;;;;;;;22.70;18.40;;;14.50;99.90;;;;;;5074879;28;20467;-65
2021/10/26 09:38:56;;;;;;;20.60;16.05;;;14.60;99.90;;;;;;5074860;28;20490;-65
2021/10/26 09:41:23;;;;;;;16.40;14.67;;;14.60;99.90;;;;;;5075286;28;20224;-66
2021/10/26 09:43:50;;;;;;;26.23;19.50;;;14.70;99.90;;;;;;5091104;28;20469;-66
2021/10/26 09:46:24;;;;;;;21.97;16.10;;;14.70;99.90;;;;;;5095131;28;20461;-66
2021/10/26 09:48:51;;;;;;;15.82;12.85;;;14.80;99.90;;;;;;5094386;28;20836;-65
2021/10/26 09:51:21;;;;;;;15.90;14.30;;;14.70;99.90;;;;;;5095261;28;20607;-65
2021/10/26 09:53:57;;;;;;;14.43;12.23;;;14.80;99.90;;;;;;5094542;28;20469;-65
2021/10/26 09:56:25;;;;;;;15.97;12.80;;;14.80;99.90;;;;;;5095222;28;20465;-65
2021/10/26 09:59:15;;;;;;;15.07;13.57;;;14.90;99.90;;;;;;5094415;28;20485;-65
2021/10/26 10:01:53;;;;;;;15.73;14.17;;;14.90;99.90;;;;;;5105043;28;20484;-65
2021/10/26 10:04:29;;;;;;;19.07;16.40;;;15.00;99.90;;;;;;5090389;28;20817;-66
2021/10/26 10:06:56;;;;;;;20.33;16.63;;;15.00;99.90;;;;;;5085778;28;21272;-66
2021/10/26 10:09:25;;;;;;;30.77;22.00;;;15.10;99.90;;;;;;5084420;28;20466;-66
2021/10/26 10:11:59;;;;;;;18.50;15.80;;;15.20;99.90;;;;;;5085309;28;20457;-66
2021/10/26 10:14:27;;;;;;;17.50;14.30;;;15.20;99.90;;;;;;5093881;28;20472;-66
2021/10/26 10:16:55;;;;;;;14.90;12.60;;;15.30;99.90;;;;;;5092125;28;20457;-66
2021/10/26 10:19:22;;;;;;;15.70;12.60;;;15.40;99.90;;;;;;5089314;28;20500;-66
2021/10/26 10:21:51;;;;;;;11.80;10.60;;;15.40;99.90;;;;;;5087117;28;20481;-66
2021/10/26 10:24:20;;;;;;;11.60;10.37;;;15.40;99.90;;;;;;5090491;28;20493;-66
2021/10/26 10:26:53;;;;;;;11.50;9.47;;;15.50;99.90;;;;;;5087232;28;20520;-66
2021/10/26 10:29:21;;;;;;;14.37;11.27;;;15.60;99.90;;;;;;5083434;28;20472;-66
2021/10/26 10:31:50;;;;;;;11.77;9.83;;;15.60;99.90;;;;;;5084124;28;20534;-66
2021/10/26 10:34:22;;;;;;;9.87;8.97;;;15.60;99.90;;;;;;5091326;28;20912;-66
2021/10/26 10:36:52;;;;;;;17.40;9.97;;;15.70;99.90;;;;;;5089682;28;20492;-66
2021/10/26 10:39:24;;;;;;;13.30;11.57;;;15.70;99.90;;;;;;5092189;28;20477;-67
2021/10/26 10:42:12;;;;;;;16.67;13.00;;;15.80;99.90;;;;;;5087483;28;20497;-66
2021/10/26 10:44:40;;;;;;;15.03;10.10;;;15.70;99.90;;;;;;5084309;28;20469;-67
2021/10/26 10:47:12;;;;;;;16.33;11.60;;;15.70;99.90;;;;;;5091486;28;20947;-66
2021/10/26 10:49:50;;;;;;;17.50;14.53;;;15.70;99.90;;;;;;5091524;28;21115;-66
2021/10/26 10:52:23;;;;;;;13.13;11.70;;;15.70;99.90;;;;;;5091954;28;20464;-66
2021/10/26 10:54:53;;;;;;;15.67;13.07;;;15.70;99.90;;;;;;5090293;28;20493;-66
2021/10/26 10:57:27;;;;;;;13.30;11.90;;;15.70;99.90;;;;;;5090581;28;20522;-66
2021/10/26 10:59:56;;;;;;;12.50;11.13;;;15.80;99.90;;;;;;5089467;28;21946;-66
2021/10/26 11:02:28;;;;;;;15.27;13.30;;;15.80;99.90;;;;;;5089910;28;20465;-66
2021/10/26 11:04:56;;;;;;;19.80;12.67;;;15.70;99.90;;;;;;5091780;28;20472;-65
2021/10/26 11:07:51;;;;;;;18.13;13.50;;;15.80;99.90;;;;;;5091700;28;20465;-65
2021/10/26 11:10:19;;;;;;;12.73;11.53;;;15.80;99.90;;;;;;5093594;28;20489;-66
2021/10/26 11:12:49;;;;;;;15.13;11.73;;;15.80;99.90;;;;;;5093589;28;20488;-66
2021/10/26 11:15:21;;;;;;;15.13;12.67;;;15.80;99.90;;;;;;5092960;28;20510;-65
2021/10/26 11:17:53;;;;;;;17.87;13.23;;;15.80;99.90;;;;;;5092902;28;21289;-66
2021/10/26 11:20:49;;;;;;;13.77;12.27;;;15.80;99.90;;;;;;5086655;28;20480;-65
2021/10/26 11:23:43;;;;;;;13.47;12.07;;;15.80;99.90;;;;;;5069051;28;20469;-66
2021/10/26 11:26:17;;;;;;;15.30;13.63;;;15.80;99.90;;;;;;5074956;28;20465;-66
2021/10/26 11:28:59;;;;;;;13.10;11.80;;;15.70;99.90;;;;;;5093230;28;20846;-65
2021/10/26 11:31:32;;;;;;;15.00;13.07;;;15.80;99.90;;;;;;5092886;28;20931;-66
2021/10/26 11:34:02;;;;;;;17.20;12.80;;;15.80;99.90;;;;;;5092931;28;20480;-66
2021/10/26 11:36:33;;;;;;;18.67;13.03;;;15.80;99.90;;;;;;5092615;28;20461;-65
2021/10/26 11:39:04;;;;;;;15.70;14.10;;;15.80;99.90;;;;;;5079770;28;20469;-66
2021/10/26 11:41:34;;;;;;;14.80;13.07;;;15.70;99.90;;;;;;5092565;28;21540;-65
2021/10/26 11:44:04;;;;;;;15.10;13.03;;;15.80;99.90;;;;;;5092892;28;20835;-65
2021/10/26 11:46:33;;;;;;;16.43;14.73;;;15.80;99.90;;;;;;5092306;28;20457;-66
2021/10/26 11:49:04;;;;;;;15.13;12.93;;;15.80;99.90;;;;;;5092847;28;20842;-66
2021/10/26 11:51:34;;;;;;;13.30;11.90;;;15.80;99.90;;;;;;5088887;28;20477;-65
2021/10/26 11:54:05;;;;;;;18.20;13.30;;;15.80;99.90;;;;;;5092852;28;20781;-66
2021/10/26 11:56:36;;;;;;;20.63;14.70;;;15.90;99.90;;;;;;5092356;28;20458;-66
2021/10/26 11:59:08;;;;;;;17.30;14.30;;;16.00;99.90;;;;;;5092570;28;20488;-66
2021/10/26 12:01:37;;;;;;;15.43;13.40;;;16.00;99.90;;;;;;5092310;28;20495;-66
2021/10/26 12:04:06;;;;;;;17.20;11.87;;;16.10;99.90;;;;;;5092786;28;20786;-66
2021/10/26 12:06:36;;;;;;;16.30;12.97;;;16.10;99.90;;;;;;5092230;28;20522;-66
2021/10/26 12:09:10;;;;;;;14.70;12.93;;;16.10;99.90;;;;;;5092231;28;20530;-66
2021/10/26 12:11:38;;;;;;;16.20;13.33;;;16.20;99.90;;;;;;5092119;28;20445;-66
2021/10/26 12:14:29;;;;;;;20.60;18.30;;;16.20;99.90;;;;;;5092711;28;20473;-66
2021/10/26 12:17:07;;;;;;;21.47;14.23;;;16.30;99.90;;;;;;5089822;28;20659;-66
2021/10/26 12:19:36;;;;;;;15.40;13.07;;;16.20;99.90;;;;;;5080983;28;20816;-66
2021/10/26 12:22:03;;;;;;;14.17;12.67;;;16.20;99.90;;;;;;5092034;28;20461;-66
2021/10/26 12:24:32;;;;;;;20.13;17.87;;;16.20;99.90;;;;;;5092447;28;20527;-66
2021/10/26 12:27:04;;;;;;;25.70;22.90;;;16.20;99.90;;;;;;5092085;28;20955;-66
2021/10/26 12:29:33;;;;;;;18.80;14.97;;;16.30;99.90;;;;;;5092156;28;20489;-66
2021/10/26 12:32:01;;;;;;;21.97;19.57;;;16.30;99.90;;;;;;5091959;28;20465;-66
2021/10/26 12:34:29;;;;;;;19.20;14.47;;;16.30;99.90;;;;;;5092270;28;20473;-66
2021/10/26 12:37:17;;;;;;;14.80;13.17;;;16.30;99.90;;;;;;5092075;28;20466;-66
2021/10/26 12:39:45;;;;;;;17.10;15.20;;;16.30;99.90;;;;;;5080679;28;20496;-65
2021/10/26 12:42:28;;;;;;;17.93;14.80;;;16.30;99.90;;;;;;5091850;28;20460;-66